Rechercher aéroport 
image banner adimage banner adimage banner ad
image banner ad

75PN - Beaver

Situé à Beaver, United States

ICAO - 75PN, IATA -

Données fournies par Airmate  

Information générale

Coordonnées: N40°41'8" W80°18'36"
Élévation : 682 feet MSL.
Variation magnétique : -07° East
Voir autres Aéroports à Pennsylvania

Données opérationnelles

Special qualification required
Heure actuelle UTC:
Heure actuelle locale:
Météo à : KBVI - Beaver County ( 12 km )
METAR: KBVI 152115Z AUTO 33008KT 10SM CLR 23/12 A2994 RMK AO2 T02250120
TAF: KBVI 151720Z 1518/1618 33010G20KT P6SM BKN040 FM152300 33008KT P6SM SCT120 FM160300 32005KT P6SM SKC
Voir NOTAMs / SUP AIP / TFR affectant cet aéroport [VIEW]
Fréquences de communication: [VIEW]

Pistes:

Identifiant RWYQFULongueur (ft)Largeur (ft)SurfaceLDA (ft)
07W5000500WATER
25W5000500WATER

Coordonnées de l'aéroport

Adresse: Beaver United States

Vue satellite de 75PN